sensor_id;sensor_type;location;lat;lon;timestamp;pressure;altitude;pressure_sealevel;temperature;humidity
6853;BME280;3465;42.144;24.722;2023-04-15T00:01:11;146111.66;;;12.78;100.00
6853;BME280;3465;42.144;24.722;2023-04-15T00:03:37;146057.69;;;12.56;100.00
6853;BME280;3465;42.144;24.722;2023-04-15T00:06:03;146062.72;;;12.58;100.00
6853;BME280;3465;42.144;24.722;2023-04-15T00:08:28;146051.44;;;12.54;100.00
6853;BME280;3465;42.144;24.722;2023-04-15T00:10:54;146099.13;;;12.73;100.00
6853;BME280;3465;42.144;24.722;2023-04-15T00:13:19;146087.84;;;12.68;100.00
6853;BME280;3465;42.144;24.722;2023-04-15T00:15:45;146060.19;;;12.57;100.00
6853;BME280;3465;42.144;24.722;2023-04-15T00:18:10;146036.34;;;12.48;100.00
6853;BME280;3465;42.144;24.722;2023-04-15T00:20:36;146007.56;;;12.36;100.00
6853;BME280;3465;42.144;24.722;2023-04-15T00:23:01;145979.91;;;12.25;100.00
6853;BME280;3465;42.144;24.722;2023-04-15T00:25:28;145981.19;;;12.26;100.00
6853;BME280;3465;42.144;24.722;2023-04-15T00:27:53;146011.31;;;12.38;100.00
6853;BME280;3465;42.144;24.722;2023-04-15T00:30:19;146018.84;;;12.41;100.00
6853;BME280;3465;42.144;24.722;2023-04-15T00:32:44;146028.84;;;12.45;100.00
6853;BME280;3465;42.144;24.722;2023-04-15T00:35:11;145982.44;;;12.26;100.00
6853;BME280;3465;42.144;24.722;2023-04-15T00:37:36;145984.94;;;12.27;100.00
6853;BME280;3465;42.144;24.722;2023-04-15T00:40:02;146006.28;;;12.36;100.00
6853;BME280;3465;42.144;24.722;2023-04-15T00:42:30;146037.63;;;12.48;100.00
6853;BME280;3465;42.144;24.722;2023-04-15T00:44:56;146035.13;;;12.47;100.00
6853;BME280;3465;42.144;24.722;2023-04-15T00:47:21;146052.66;;;12.54;100.00
6853;BME280;3465;42.144;24.722;2023-04-15T00:49:47;146051.44;;;12.54;100.00
6853;BME280;3465;42.144;24.722;2023-04-15T00:52:13;146046.41;;;12.52;100.00
6853;BME280;3465;42.144;24.722;2023-04-15T00:54:38;145986.22;;;12.28;100.00
6853;BME280;3465;42.144;24.722;2023-04-15T00:57:05;145929.78;;;12.05;100.00
6853;BME280;3465;42.144;24.722;2023-04-15T00:59:32;145936.03;;;12.08;100.00
6853;BME280;3465;42.144;24.722;2023-04-15T01:01:58;145899.66;;;11.93;100.00
6853;BME280;3465;42.144;24.722;2023-04-15T01:04:24;145892.16;;;11.90;100.00
6853;BME280;3465;42.144;24.722;2023-04-15T01:06:49;145889.66;;;11.89;100.00
6853;BME280;3465;42.144;24.722;2023-04-15T01:09:15;145904.69;;;11.95;100.00
6853;BME280;3465;42.144;24.722;2023-04-15T01:11:41;145912.22;;;11.98;100.00
6853;BME280;3465;42.144;24.722;2023-04-15T01:14:08;145890.94;;;11.90;100.00
6853;BME280;3465;42.144;24.722;2023-04-15T01:16:35;145875.84;;;11.84;100.00
6853;BME280;3465;42.144;24.722;2023-04-15T01:19:05;145859.53;;;11.77;100.00
6853;BME280;3465;42.144;24.722;2023-04-15T01:21:35;145859.53;;;11.77;100.00
6853;BME280;3465;42.144;24.722;2023-04-15T01:24:01;145829.47;;;11.65;100.00
6853;BME280;3465;42.144;24.722;2023-04-15T01:26:30;145815.63;;;11.59;100.00
6853;BME280;3465;42.144;24.722;2023-04-15T01:28:55;145790.59;;;11.49;100.00
6853;BME280;3465;42.144;24.722;2023-04-15T01:31:21;145796.84;;;11.52;100.00
6853;BME280;3465;42.144;24.722;2023-04-15T01:33:47;145796.84;;;11.52;100.00
6853;BME280;3465;42.144;24.722;2023-04-15T01:36:12;145785.56;;;11.47;100.00
6853;BME280;3465;42.144;24.722;2023-04-15T01:38:38;145781.81;;;11.46;100.00
6853;BME280;3465;42.144;24.722;2023-04-15T01:41:04;145796.84;;;11.52;100.00
6853;BME280;3465;42.144;24.722;2023-04-15T01:43:31;145755.47;;;11.35;100.00
6853;BME280;3465;42.144;24.722;2023-04-15T01:45:57;145793.09;;;11.50;100.00
6853;BME280;3465;42.144;24.722;2023-04-15T01:48:22;145794.34;;;11.51;100.00
6853;BME280;3465;42.144;24.722;2023-04-15T01:50:48;145789.31;;;11.49;100.00
6853;BME280;3465;42.144;24.722;2023-04-15T01:53:13;145801.88;;;11.54;100.00
6853;BME280;3465;42.144;24.722;2023-04-15T01:55:40;145770.53;;;11.41;100.00
6853;BME280;3465;42.144;24.722;2023-04-15T01:58:06;145734.19;;;11.27;100.00
6853;BME280;3465;42.144;24.722;2023-04-15T02:00:31;145610.19;;;10.77;100.00
6853;BME280;3465;42.144;24.722;2023-04-15T02:02:57;145687.81;;;11.08;100.00
6853;BME280;3465;42.144;24.722;2023-04-15T02:05:23;145709.13;;;11.17;100.00
6853;BME280;3465;42.144;24.722;2023-04-15T02:07:49;145689.06;;;11.09;100.00
6853;BME280;3465;42.144;24.722;2023-04-15T02:10:15;145686.59;;;11.08;100.00
6853;BME280;3465;42.144;24.722;2023-04-15T02:12:41;145690.34;;;11.09;100.00
6853;BME280;3465;42.144;24.722;2023-04-15T02:15:06;145699.06;;;11.13;100.00
6853;BME280;3465;42.144;24.722;2023-04-15T02:17:33;145647.72;;;10.92;100.00
6853;BME280;3465;42.144;24.722;2023-04-15T02:19:59;145637.72;;;10.88;100.00
6853;BME280;3465;42.144;24.722;2023-04-15T02:22:25;145611.41;;;10.78;100.00
6853;BME280;3465;42.144;24.722;2023-04-15T02:24:50;145608.91;;;10.77;100.00
6853;BME280;3465;42.144;24.722;2023-04-15T02:27:16;145558.78;;;10.57;100.00
6853;BME280;3465;42.144;24.722;2023-04-15T02:29:44;145567.56;;;10.60;100.00
6853;BME280;3465;42.144;24.722;2023-04-15T02:32:12;145571.31;;;10.62;100.00
6853;BME280;3465;42.144;24.722;2023-04-15T02:34:39;145537.53;;;10.48;100.00
6853;BME280;3465;42.144;24.722;2023-04-15T02:37:10;145568.81;;;10.61;100.00
6853;BME280;3465;42.144;24.722;2023-04-15T02:39:36;145531.25;;;10.46;100.00
6853;BME280;3465;42.144;24.722;2023-04-15T02:42:02;145548.78;;;10.53;100.00
6853;BME280;3465;42.144;24.722;2023-04-15T02:44:29;145546.31;;;10.52;100.00
6853;BME280;3465;42.144;24.722;2023-04-15T02:46:55;145580.09;;;10.65;100.00
6853;BME280;3465;42.144;24.722;2023-04-15T02:49:20;145593.88;;;10.71;100.00
6853;BME280;3465;42.144;24.722;2023-04-15T02:51:47;145631.44;;;10.86;100.00
6853;BME280;3465;42.144;24.722;2023-04-15T02:54:15;145617.69;;;10.80;100.00
6853;BME280;3465;42.144;24.722;2023-04-15T02:56:41;145638.94;;;10.89;100.00
6853;BME280;3465;42.144;24.722;2023-04-15T02:59:06;145626.47;;;10.84;100.00
6853;BME280;3465;42.144;24.722;2023-04-15T03:01:34;145654.00;;;10.95;100.00
6853;BME280;3465;42.144;24.722;2023-04-15T03:04:00;145646.50;;;10.92;100.00
6853;BME280;3465;42.144;24.722;2023-04-15T03:06:25;145654.00;;;10.95;100.00
6853;BME280;3465;42.144;24.722;2023-04-15T03:08:51;145641.47;;;10.90;100.00
6853;BME280;3465;42.144;24.722;2023-04-15T03:11:16;145660.25;;;10.97;100.00
6853;BME280;3465;42.144;24.722;2023-04-15T03:13:42;145666.53;;;11.00;100.00
6853;BME280;3465;42.144;24.722;2023-04-15T03:16:08;145665.28;;;10.99;100.00
6853;BME280;3465;42.144;24.722;2023-04-15T03:18:34;145628.94;;;10.85;100.00
6853;BME280;3465;42.144;24.722;2023-04-15T03:21:00;145646.50;;;10.92;100.00
6853;BME280;3465;42.144;24.722;2023-04-15T03:23:27;145616.41;;;10.80;100.00
6853;BME280;3465;42.144;24.722;2023-04-15T03:25:52;145623.94;;;10.83;100.00
6853;BME280;3465;42.144;24.722;2023-04-15T03:28:20;145608.91;;;10.77;100.00
6853;BME280;3465;42.144;24.722;2023-04-15T03:30:45;145536.28;;;10.48;100.00
6853;BME280;3465;42.144;24.722;2023-04-15T03:33:10;145558.78;;;10.57;100.00
6853;BME280;3465;42.144;24.722;2023-04-15T03:35:36;145566.34;;;10.60;100.00
6853;BME280;3465;42.144;24.722;2023-04-15T03:38:02;145548.78;;;10.53;100.00
6853;BME280;3465;42.144;24.722;2023-04-15T03:40:27;145543.78;;;10.51;100.00
6853;BME280;3465;42.144;24.722;2023-04-15T03:42:53;145540.03;;;10.49;100.00
6853;BME280;3465;42.144;24.722;2023-04-15T03:45:18;145514.97;;;10.39;100.00
6853;BME280;3465;42.144;24.722;2023-04-15T03:47:44;145493.72;;;10.31;100.00
6853;BME280;3465;42.144;24.722;2023-04-15T03:50:09;145516.22;;;10.40;100.00
6853;BME280;3465;42.144;24.722;2023-04-15T03:52:35;145506.25;;;10.36;100.00
6853;BME280;3465;42.144;24.722;2023-04-15T03:55:00;145474.91;;;10.23;100.00
6853;BME280;3465;42.144;24.722;2023-04-15T03:57:26;145479.91;;;10.25;100.00
6853;BME280;3465;42.144;24.722;2023-04-15T03:59:51;145456.13;;;10.16;100.00
6853;BME280;3465;42.144;24.722;2023-04-15T04:02:17;145494.94;;;10.31;100.00
6853;BME280;3465;42.144;24.722;2023-04-15T04:04:42;145487.44;;;10.28;100.00
6853;BME280;3465;42.144;24.722;2023-04-15T04:07:14;145491.19;;;10.30;100.00
6853;BME280;3465;42.144;24.722;2023-04-15T04:09:39;145474.91;;;10.23;100.00
6853;BME280;3465;42.144;24.722;2023-04-15T04:12:06;145379.72;;;9.85;100.00
6853;BME280;3465;42.144;24.722;2023-04-15T04:14:31;145401.03;;;9.93;100.00
6853;BME280;3465;42.144;24.722;2023-04-15T04:16:57;145353.47;;;9.74;100.00
6853;BME280;3465;42.144;24.722;2023-04-15T04:19:22;145392.25;;;9.90;100.00
6853;BME280;3465;42.144;24.722;2023-04-15T04:21:48;145382.22;;;9.86;100.00
6853;BME280;3465;42.144;24.722;2023-04-15T04:24:13;145388.50;;;9.88;100.00
6853;BME280;3465;42.144;24.722;2023-04-15T04:26:38;145369.75;;;9.81;100.00
6853;BME280;3465;42.144;24.722;2023-04-15T04:29:04;145362.19;;;9.78;100.00
6853;BME280;3465;42.144;24.722;2023-04-15T04:31:29;145355.97;;;9.75;100.00
6853;BME280;3465;42.144;24.722;2023-04-15T04:33:55;145383.50;;;9.86;100.00
6853;BME280;3465;42.144;24.722;2023-04-15T04:36:20;145408.53;;;9.96;100.00
6853;BME280;3465;42.144;24.722;2023-04-15T04:38:45;145451.13;;;10.13;100.00
6853;BME280;3465;42.144;24.722;2023-04-15T04:41:11;145423.53;;;10.02;100.00
6853;BME280;3465;42.144;24.722;2023-04-15T04:43:36;145407.25;;;9.96;100.00
6853;BME280;3465;42.144;24.722;2023-04-15T04:46:02;145372.22;;;9.82;100.00
6853;BME280;3465;42.144;24.722;2023-04-15T04:48:27;145360.97;;;9.77;100.00
6853;BME280;3465;42.144;24.722;2023-04-15T04:50:52;145372.22;;;9.82;100.00
6853;BME280;3465;42.144;24.722;2023-04-15T04:53:18;145348.47;;;9.72;100.00
6853;BME280;3465;42.144;24.722;2023-04-15T04:55:43;145349.72;;;9.73;100.00
6853;BME280;3465;42.144;24.722;2023-04-15T04:58:09;145370.97;;;9.81;100.00
6853;BME280;3465;42.144;24.722;2023-04-15T05:00:35;145394.75;;;9.91;100.00
6853;BME280;3465;42.144;24.722;2023-04-15T05:03:02;145447.38;;;10.12;100.00
6853;BME280;3465;42.144;24.722;2023-04-15T05:05:27;145426.06;;;10.03;100.00
6853;BME280;3465;42.144;24.722;2023-04-15T05:07:53;145498.69;;;10.33;100.00
6853;BME280;3465;42.144;24.722;2023-04-15T05:10:18;145632.72;;;10.86;100.00
6853;BME280;3465;42.144;24.722;2023-04-15T05:12:43;145821.91;;;11.62;98.11
6853;BME280;3465;42.144;24.722;2023-04-15T05:15:09;146106.63;;;12.76;90.58
6853;BME280;3465;42.144;24.722;2023-04-15T05:17:35;146454.41;;;14.15;81.21
6853;BME280;3465;42.144;24.722;2023-04-15T05:20:01;146710.88;;;15.17;75.19
6853;BME280;3465;42.144;24.722;2023-04-15T05:22:27;147054.38;;;16.54;68.70
6853;BME280;3465;42.144;24.722;2023-04-15T05:24:52;147452.41;;;18.13;61.24
6853;BME280;3465;42.144;24.722;2023-04-15T05:27:20;147857.34;;;19.74;54.63
6853;BME280;3465;42.144;24.722;2023-04-15T05:29:47;148269.09;;;21.38;48.85
6853;BME280;3465;42.144;24.722;2023-04-15T05:32:12;148625.72;;;22.79;44.79
6853;BME280;3465;42.144;24.722;2023-04-15T05:34:38;148937.13;;;24.02;41.33
6853;BME280;3465;42.144;24.722;2023-04-15T05:37:03;149104.38;;;24.69;39.13
6853;BME280;3465;42.144;24.722;2023-04-15T05:39:29;149294.47;;;25.44;37.70
6853;BME280;3465;42.144;24.722;2023-04-15T05:41:56;149483.44;;;26.19;36.11
6853;BME280;3465;42.144;24.722;2023-04-15T05:44:22;149532.88;;;26.38;34.89
6853;BME280;3465;42.144;24.722;2023-04-15T05:46:47;149691.50;;;27.01;33.96
6853;BME280;3465;42.144;24.722;2023-04-15T05:49:13;149659.78;;;26.89;34.12
6853;BME280;3465;42.144;24.722;2023-04-15T05:51:38;149418.72;;;25.93;35.14
6853;BME280;3465;42.144;24.722;2023-04-15T05:54:04;149308.44;;;25.50;35.92
6853;BME280;3465;42.144;24.722;2023-04-15T05:56:29;149338.84;;;25.62;35.71
6853;BME280;3465;42.144;24.722;2023-04-15T05:58:55;149423.78;;;25.95;35.71
6853;BME280;3465;42.144;24.722;2023-04-15T06:01:21;149507.53;;;26.28;34.63
6853;BME280;3465;42.144;24.722;2023-04-15T06:03:46;149619.19;;;26.73;33.81
6853;BME280;3465;42.144;24.722;2023-04-15T06:06:12;149892.09;;;27.80;32.42
6853;BME280;3465;42.144;24.722;2023-04-15T06:08:39;150058.50;;;28.46;31.50
6853;BME280;3465;42.144;24.722;2023-04-15T06:11:05;150307.66;;;29.45;30.32
6853;BME280;3465;42.144;24.722;2023-04-15T06:13:30;150363.63;;;29.67;29.62
6853;BME280;3465;42.144;24.722;2023-04-15T06:15:56;150511.19;;;30.25;29.38
6853;BME280;3465;42.144;24.722;2023-04-15T06:18:21;150671.50;;;30.88;28.41
6853;BME280;3465;42.144;24.722;2023-04-15T06:20:49;150122.06;;;28.71;30.32
6853;BME280;3465;42.144;24.722;2023-04-15T06:23:15;150203.38;;;29.03;30.51
6853;BME280;3465;42.144;24.722;2023-04-15T06:25:41;150438.66;;;29.96;29.70
6853;BME280;3465;42.144;24.722;2023-04-15T06:28:06;150587.50;;;30.55;29.25
6853;BME280;3465;42.144;24.722;2023-04-15T06:30:32;150784.84;;;31.33;28.83
6853;BME280;3465;42.144;24.722;2023-04-15T06:32:57;150956.69;;;32.00;28.30
6853;BME280;3465;42.144;24.722;2023-04-15T06:35:23;150944.00;;;31.95;27.94
6853;BME280;3465;42.144;24.722;2023-04-15T06:37:48;150857.38;;;31.61;28.45
6853;BME280;3465;42.144;24.722;2023-04-15T06:40:14;150992.41;;;32.15;28.72
6853;BME280;3465;42.144;24.722;2023-04-15T06:42:39;151099.38;;;32.57;27.69
6853;BME280;3465;42.144;24.722;2023-04-15T06:45:05;151328.84;;;33.47;27.45
6853;BME280;3465;42.144;24.722;2023-04-15T06:47:36;151414.22;;;33.81;26.92
6853;BME280;3465;42.144;24.722;2023-04-15T06:50:02;151280.38;;;33.28;27.20
6853;BME280;3465;42.144;24.722;2023-04-15T06:52:28;151479.31;;;34.06;27.02
6853;BME280;3465;42.144;24.722;2023-04-15T06:54:53;151587.78;;;34.49;26.20
6853;BME280;3465;42.144;24.722;2023-04-15T06:57:19;151693.69;;;34.91;25.44
6853;BME280;3465;42.144;24.722;2023-04-15T06:59:44;151642.59;;;34.70;25.56
6853;BME280;3465;42.144;24.722;2023-04-15T07:02:11;151714.09;;;34.99;25.40
6853;BME280;3465;42.144;24.722;2023-04-15T07:04:37;151737.03;;;35.08;26.28
6853;BME280;3465;42.144;24.722;2023-04-15T07:07:04;151772.75;;;35.22;25.95
6853;BME280;3465;42.144;24.722;2023-04-15T07:09:31;151753.63;;;35.14;26.20
6853;BME280;3465;42.144;24.722;2023-04-15T07:11:56;151682.16;;;34.86;26.14
6853;BME280;3465;42.144;24.722;2023-04-15T07:14:22;151594.13;;;34.51;27.02
6853;BME280;3465;42.144;24.722;2023-04-15T07:16:47;151728.09;;;35.04;26.77
6853;BME280;3465;42.144;24.722;2023-04-15T07:19:12;151903.00;;;35.73;26.17
6853;BME280;3465;42.144;24.722;2023-04-15T07:21:38;151923.44;;;35.81;25.91
6853;BME280;3465;42.144;24.722;2023-04-15T07:24:04;152127.81;;;36.61;24.87
6853;BME280;3465;42.144;24.722;2023-04-15T07:26:29;152131.63;;;36.63;24.67
6853;BME280;3465;42.144;24.722;2023-04-15T07:28:54;152033.25;;;36.24;25.55
6853;BME280;3465;42.144;24.722;2023-04-15T07:31:20;152166.09;;;36.76;24.78
6853;BME280;3465;42.144;24.722;2023-04-15T07:33:46;152238.94;;;37.05;24.16
6853;BME280;3465;42.144;24.722;2023-04-15T07:36:11;152360.38;;;37.53;23.68
6853;BME280;3465;42.144;24.722;2023-04-15T07:38:37;152269.63;;;37.17;23.73
6853;BME280;3465;42.144;24.722;2023-04-15T07:41:03;152245.34;;;37.07;23.56
6853;BME280;3465;42.144;24.722;2023-04-15T07:43:29;152116.28;;;36.57;24.40
6853;BME280;3465;42.144;24.722;2023-04-15T07:45:54;152249.19;;;37.09;23.41
6853;BME280;3465;42.144;24.722;2023-04-15T07:48:19;152288.81;;;37.24;22.81
6853;BME280;3465;42.144;24.722;2023-04-15T07:50:45;152166.09;;;36.76;23.60
6853;BME280;3465;42.144;24.722;2023-04-15T07:53:10;152315.66;;;37.35;23.10
6853;BME280;3465;42.144;24.722;2023-04-15T07:55:36;152452.41;;;37.89;22.83
6853;BME280;3465;42.144;24.722;2023-04-15T07:58:01;152282.41;;;37.22;23.16
6853;BME280;3465;42.144;24.722;2023-04-15T08:00:27;152281.09;;;37.21;22.54
6853;BME280;3465;42.144;24.722;2023-04-15T08:02:52;152365.47;;;37.55;22.82
6853;BME280;3465;42.144;24.722;2023-04-15T08:05:18;152299.06;;;37.28;23.02
6853;BME280;3465;42.144;24.722;2023-04-15T08:07:44;152398.69;;;37.68;22.90
6853;BME280;3465;42.144;24.722;2023-04-15T08:10:10;152502.28;;;38.08;22.75
6853;BME280;3465;42.144;24.722;2023-04-15T08:12:36;152591.78;;;38.43;21.73
6853;BME280;3465;42.144;24.722;2023-04-15T08:15:01;152608.41;;;38.50;21.74
6853;BME280;3465;42.144;24.722;2023-04-15T08:17:27;152594.34;;;38.44;21.84
6853;BME280;3465;42.144;24.722;2023-04-15T08:19:52;152382.06;;;37.61;22.00
6853;BME280;3465;42.144;24.722;2023-04-15T08:22:18;152362.91;;;37.54;22.37
6853;BME280;3465;42.144;24.722;2023-04-15T08:24:43;152296.47;;;37.27;22.79
6853;BME280;3465;42.144;24.722;2023-04-15T08:27:09;152051.16;;;36.31;23.01
6853;BME280;3465;42.144;24.722;2023-04-15T08:29:34;152180.22;;;36.82;22.99
6853;BME280;3465;42.144;24.722;2023-04-15T08:32:00;152199.34;;;36.89;23.03
6853;BME280;3465;42.144;24.722;2023-04-15T08:34:26;152406.41;;;37.71;22.35
6853;BME280;3465;42.144;24.722;2023-04-15T08:36:51;152237.69;;;37.04;22.08
6853;BME280;3465;42.144;24.722;2023-04-15T08:39:17;151966.88;;;35.98;23.15
6853;BME280;3465;42.144;24.722;2023-04-15T08:41:47;151305.88;;;33.38;24.96
6853;BME280;3465;42.144;24.722;2023-04-15T08:44:16;151214.09;;;33.02;26.51
6853;BME280;3465;42.144;24.722;2023-04-15T08:46:42;151685.97;;;34.88;25.36
6853;BME280;3465;42.144;24.722;2023-04-15T08:49:12;151765.09;;;35.19;24.43
6853;BME280;3465;42.144;24.722;2023-04-15T08:51:38;151941.31;;;35.88;23.43
6853;BME280;3465;42.144;24.722;2023-04-15T08:54:04;151797.00;;;35.31;23.30
6853;BME280;3465;42.144;24.722;2023-04-15T08:56:31;150890.47;;;31.74;26.48
6853;BME280;3465;42.144;24.722;2023-04-15T08:58:58;150539.16;;;30.36;28.65
6853;BME280;3465;42.144;24.722;2023-04-15T09:01:23;150707.16;;;31.02;28.37
6853;BME280;3465;42.144;24.722;2023-04-15T09:03:49;150968.19;;;32.05;26.75
6853;BME280;3465;42.144;24.722;2023-04-15T09:06:16;150905.75;;;31.80;25.99
6853;BME280;3465;42.144;24.722;2023-04-15T09:08:42;151015.28;;;32.24;26.78
6853;BME280;3465;42.144;24.722;2023-04-15T09:11:07;150791.19;;;31.35;27.15
6853;BME280;3465;42.144;24.722;2023-04-15T09:13:33;150700.75;;;31.00;27.45
6853;BME280;3465;42.144;24.722;2023-04-15T09:16:01;151094.31;;;32.55;25.97
6853;BME280;3465;42.144;24.722;2023-04-15T09:18:33;151349.22;;;33.55;24.59
6853;BME280;3465;42.144;24.722;2023-04-15T09:21:13;151509.94;;;34.18;23.36
6853;BME280;3465;42.144;24.722;2023-04-15T09:23:41;150901.94;;;31.79;24.61
6853;BME280;3465;42.144;24.722;2023-04-15T09:26:17;150705.88;;;31.02;26.54
6853;BME280;3465;42.144;24.722;2023-04-15T09:28:43;150777.09;;;31.30;26.65
6853;BME280;3465;42.144;24.722;2023-04-15T09:31:08;150806.44;;;31.41;25.00
6853;BME280;3465;42.144;24.722;2023-04-15T09:33:34;150919.78;;;31.86;23.87
6853;BME280;3465;42.144;24.722;2023-04-15T09:36:04;150817.88;;;31.46;25.23
6853;BME280;3465;42.144;24.722;2023-04-15T09:38:30;150752.94;;;31.20;25.66
6853;BME280;3465;42.144;24.722;2023-04-15T09:40:57;150595.13;;;30.58;26.25
6853;BME280;3465;42.144;24.722;2023-04-15T09:43:40;150489.50;;;30.16;27.56
6853;BME280;3465;42.144;24.722;2023-04-15T09:46:06;150602.75;;;30.61;27.13
6853;BME280;3465;42.144;24.722;2023-04-15T09:48:31;150698.25;;;30.99;26.82
6853;BME280;3465;42.144;24.722;2023-04-15T09:50:57;150891.72;;;31.75;26.60
6853;BME280;3465;42.144;24.722;2023-04-15T09:53:24;150457.72;;;30.04;27.94
6853;BME280;3465;42.144;24.722;2023-04-15T09:55:52;150172.91;;;28.91;29.92
6853;BME280;3465;42.144;24.722;2023-04-15T10:00:49;150343.25;;;29.59;28.77
6853;BME280;3465;42.144;24.722;2023-04-15T10:03:19;150844.66;;;31.56;27.03
6853;BME280;3465;42.144;24.722;2023-04-15T10:05:46;150749.13;;;31.19;26.71
6853;BME280;3465;42.144;24.722;2023-04-15T10:08:13;150534.06;;;30.34;28.04
6853;BME280;3465;42.144;24.722;2023-04-15T10:10:39;150745.31;;;31.17;26.93
6853;BME280;3465;42.144;24.722;2023-04-15T10:13:05;150698.25;;;30.99;27.33
6853;BME280;3465;42.144;24.722;2023-04-15T10:15:31;151048.41;;;32.37;25.72
6853;BME280;3465;42.144;24.722;2023-04-15T10:17:59;151201.34;;;32.97;25.31
6853;BME280;3465;42.144;24.722;2023-04-15T10:20:25;151345.41;;;33.54;24.19
6853;BME280;3465;42.144;24.722;2023-04-15T10:22:52;151484.41;;;34.08;23.28
6853;BME280;3465;42.144;24.722;2023-04-15T10:25:17;151615.81;;;34.60;22.82
6853;BME280;3465;42.144;24.722;2023-04-15T10:27:44;151091.75;;;32.54;23.36
6853;BME280;3465;42.144;24.722;2023-04-15T10:30:09;151091.75;;;32.54;23.00
6853;BME280;3465;42.144;24.722;2023-04-15T10:32:39;150559.53;;;30.44;24.55
6853;BME280;3465;42.144;24.722;2023-04-15T10:35:05;149826.09;;;27.54;26.77
6853;BME280;3465;42.144;24.722;2023-04-15T10:37:36;150123.34;;;28.72;26.08
6853;BME280;3465;42.144;24.722;2023-04-15T10:42:54;150891.72;;;31.75;23.64
6853;BME280;3465;42.144;24.722;2023-04-15T10:45:20;151188.66;;;32.92;23.51
6853;BME280;3465;42.144;24.722;2023-04-15T10:47:45;151455.06;;;33.97;22.42
6853;BME280;3465;42.144;24.722;2023-04-15T10:50:17;150994.91;;;32.16;24.00
6853;BME280;3465;42.144;24.722;2023-04-15T10:52:43;150878.97;;;31.70;25.33
6853;BME280;3465;42.144;24.722;2023-04-15T10:55:19;150866.31;;;31.65;24.97
6853;BME280;3465;42.144;24.722;2023-04-15T10:57:45;150522.63;;;30.29;27.22
6853;BME280;3465;42.144;24.722;2023-04-15T11:00:15;150766.94;;;31.26;26.42
6853;BME280;3465;42.144;24.722;2023-04-15T11:03:33;150966.91;;;32.04;26.29
6853;BME280;3465;42.144;24.722;2023-04-15T11:08:04;150635.84;;;30.74;27.22
6853;BME280;3465;42.144;24.722;2023-04-15T11:13:20;150394.16;;;29.79;27.74
6853;BME280;3465;42.144;24.722;2023-04-15T11:15:46;150460.25;;;30.05;28.04
6853;BME280;3465;42.144;24.722;2023-04-15T11:18:19;150203.38;;;29.03;28.55
6853;BME280;3465;42.144;24.722;2023-04-15T11:20:53;149794.34;;;27.42;30.77
6853;BME280;3465;42.144;24.722;2023-04-15T11:25:54;149860.38;;;27.68;31.06
6853;BME280;3465;42.144;24.722;2023-04-15T11:28:24;149883.22;;;27.77;31.12
6853;BME280;3465;42.144;24.722;2023-04-15T11:30:50;150025.50;;;28.33;30.04
6853;BME280;3465;42.144;24.722;2023-04-15T11:33:15;150010.25;;;28.27;30.18
6853;BME280;3465;42.144;24.722;2023-04-15T11:35:42;149788.03;;;27.39;30.96
6853;BME280;3465;42.144;24.722;2023-04-15T11:38:09;149860.38;;;27.68;31.79
6853;BME280;3465;42.144;24.722;2023-04-15T11:40:36;149503.75;;;26.27;33.98
6853;BME280;3465;42.144;24.722;2023-04-15T11:43:07;149416.16;;;25.92;35.00
6853;BME280;3465;42.144;24.722;2023-04-15T11:45:36;149340.13;;;25.62;34.74
6853;BME280;3465;42.144;24.722;2023-04-15T11:50:31;149831.16;;;27.56;31.31
6853;BME280;3465;42.144;24.722;2023-04-15T11:53:01;149893.41;;;27.81;31.91
6853;BME280;3465;42.144;24.722;2023-04-15T11:55:27;149749.88;;;27.24;32.36
6853;BME280;3465;42.144;24.722;2023-04-15T12:00:32;149678.81;;;26.96;32.89
6853;BME280;3465;42.144;24.722;2023-04-15T12:13:58;149513.88;;;26.31;34.49
6853;BME280;3465;42.144;24.722;2023-04-15T12:16:27;149597.56;;;26.64;34.00
6853;BME280;3465;42.144;24.722;2023-04-15T12:18:54;149682.66;;;26.98;33.76
6853;BME280;3465;42.144;24.722;2023-04-15T12:21:25;149742.28;;;27.21;32.81
6853;BME280;3465;42.144;24.722;2023-04-15T12:23:52;149685.19;;;26.99;33.79
6853;BME280;3465;42.144;24.722;2023-04-15T12:26:44;149570.94;;;26.53;34.12
6853;BME280;3465;42.144;24.722;2023-04-15T12:29:11;149492.28;;;26.22;34.80
6853;BME280;3465;42.144;24.722;2023-04-15T12:31:46;149659.78;;;26.89;33.36
6853;BME280;3465;42.144;24.722;2023-04-15T12:34:13;149715.59;;;27.11;34.09
6853;BME280;3465;42.144;24.722;2023-04-15T12:36:39;149416.16;;;25.92;36.21
6853;BME280;3465;42.144;24.722;2023-04-15T12:39:05;149167.69;;;24.94;37.24
6853;BME280;3465;42.144;24.722;2023-04-15T12:41:33;149222.19;;;25.15;37.87
6853;BME280;3465;42.144;24.722;2023-04-15T12:43:59;149312.22;;;25.51;37.41
6853;BME280;3465;42.144;24.722;2023-04-15T12:46:25;149318.56;;;25.54;37.69
6853;BME280;3465;42.144;24.722;2023-04-15T12:48:51;149283.06;;;25.40;37.48
6853;BME280;3465;42.144;24.722;2023-04-15T12:51:18;149331.22;;;25.59;38.00
6853;BME280;3465;42.144;24.722;2023-04-15T12:53:43;149119.56;;;24.75;39.41
6853;BME280;3465;42.144;24.722;2023-04-15T12:56:09;149077.75;;;24.58;39.62
6853;BME280;3465;42.144;24.722;2023-04-15T12:58:34;149161.38;;;24.91;39.67
6853;BME280;3465;42.144;24.722;2023-04-15T13:01:00;149162.66;;;24.92;39.71
6853;BME280;3465;42.144;24.722;2023-04-15T13:03:28;149041.00;;;24.44;40.50
6853;BME280;3465;42.144;24.722;2023-04-15T13:05:54;148801.66;;;23.49;42.54
6853;BME280;3465;42.144;24.722;2023-04-15T13:08:19;148823.16;;;23.57;42.29
6853;BME280;3465;42.144;24.722;2023-04-15T13:10:45;148918.09;;;23.95;42.69
6853;BME280;3465;42.144;24.722;2023-04-15T13:13:10;148932.09;;;24.01;42.48
6853;BME280;3465;42.144;24.722;2023-04-15T13:15:36;148844.69;;;23.66;43.19
6853;BME280;3465;42.144;24.722;2023-04-15T13:18:02;148767.47;;;23.35;44.52
6853;BME280;3465;42.144;24.722;2023-04-15T13:20:29;148758.59;;;23.32;45.39
6853;BME280;3465;42.144;24.722;2023-04-15T13:22:54;148671.28;;;22.97;45.78